sensor_id;sensor_type;location;lat;lon;timestamp;pressure;altitude;pressure_sealevel;temperature;humidity
69574;BME280;62840;52.366;5.980;2022-11-23T00:02:18;99432.28;;;8.62;76.73
69574;BME280;62840;52.366;5.980;2022-11-23T00:04:43;99438.56;;;8.61;76.81
69574;BME280;62840;52.366;5.980;2022-11-23T00:07:09;99436.75;;;8.61;76.74
69574;BME280;62840;52.366;5.980;2022-11-23T00:09:38;99435.91;;;8.61;76.78
69574;BME280;62840;52.366;5.980;2022-11-23T00:12:04;99433.94;;;8.63;76.76
69574;BME280;62840;52.366;5.980;2022-11-23T00:14:30;99440.09;;;8.63;76.80
69574;BME280;62840;52.366;5.980;2022-11-23T00:16:56;99437.28;;;8.65;76.90
69574;BME280;62840;52.366;5.980;2022-11-23T00:19:21;99441.59;;;8.66;76.80
69574;BME280;62840;52.366;5.980;2022-11-23T00:21:47;99444.00;;;8.69;76.83
69574;BME280;62840;52.366;5.980;2022-11-23T00:24:13;99450.97;;;8.70;76.71
69574;BME280;62840;52.366;5.980;2022-11-23T00:26:41;99453.63;;;8.70;76.73
69574;BME280;62840;52.366;5.980;2022-11-23T00:29:07;99445.66;;;8.70;76.88
69574;BME280;62840;52.366;5.980;2022-11-23T00:31:33;99452.66;;;8.71;76.78
69574;BME280;62840;52.366;5.980;2022-11-23T00:33:59;99457.97;;;8.71;76.94
69574;BME280;62840;52.366;5.980;2022-11-23T00:36:26;99457.09;;;8.70;76.79
69574;BME280;62840;52.366;5.980;2022-11-23T00:38:52;99461.31;;;8.73;76.89
69574;BME280;62840;52.366;5.980;2022-11-23T00:41:20;99461.31;;;8.73;76.88
69574;BME280;62840;52.366;5.980;2022-11-23T00:43:49;99462.97;;;8.74;76.85
69574;BME280;62840;52.366;5.980;2022-11-23T00:46:17;99464.66;;;8.75;76.75
69574;BME280;62840;52.366;5.980;2022-11-23T00:48:46;99464.66;;;8.75;76.87
69574;BME280;62840;52.366;5.980;2022-11-23T00:51:16;99462.00;;;8.75;76.95
69574;BME280;62840;52.366;5.980;2022-11-23T00:53:43;99462.66;;;8.77;76.83
69574;BME280;62840;52.366;5.980;2022-11-23T00:56:10;99462.66;;;8.77;77.05
69574;BME280;62840;52.366;5.980;2022-11-23T00:58:36;99456.38;;;8.78;76.97
69574;BME280;62840;52.366;5.980;2022-11-23T01:01:07;99459.03;;;8.78;76.94
69574;BME280;62840;52.366;5.980;2022-11-23T01:03:35;99462.66;;;8.77;76.97
69574;BME280;62840;52.366;5.980;2022-11-23T01:06:03;99460.69;;;8.79;76.77
69574;BME280;62840;52.366;5.980;2022-11-23T01:08:31;99456.06;;;8.81;76.78
69574;BME280;62840;52.366;5.980;2022-11-23T01:10:58;99467.38;;;8.83;76.82
69574;BME280;62840;52.366;5.980;2022-11-23T01:13:24;99467.38;;;8.83;76.73
69574;BME280;62840;52.366;5.980;2022-11-23T01:15:50;99470.06;;;8.83;76.84
69574;BME280;62840;52.366;5.980;2022-11-23T01:18:19;99477.19;;;8.83;76.77
69574;BME280;62840;52.366;5.980;2022-11-23T01:20:45;99476.38;;;8.82;76.98
69574;BME280;62840;52.366;5.980;2022-11-23T01:23:10;99484.47;;;8.80;76.84
69574;BME280;62840;52.366;5.980;2022-11-23T01:25:36;99472.03;;;8.81;76.88
69574;BME280;62840;52.366;5.980;2022-11-23T01:28:02;99482.66;;;8.81;77.03
69574;BME280;62840;52.366;5.980;2022-11-23T01:30:28;99492.31;;;8.82;77.06
69574;BME280;62840;52.366;5.980;2022-11-23T01:32:54;99485.31;;;8.81;76.88
69574;BME280;62840;52.366;5.980;2022-11-23T01:35:22;99496.78;;;8.82;77.06
69574;BME280;62840;52.366;5.980;2022-11-23T01:37:48;99496.78;;;8.82;77.03
69574;BME280;62840;52.366;5.980;2022-11-23T01:40:15;99508.25;;;8.82;77.05
69574;BME280;62840;52.366;5.980;2022-11-23T01:42:50;99502.94;;;8.82;76.97
69574;BME280;62840;52.366;5.980;2022-11-23T01:45:39;99508.78;;;8.86;77.04
69574;BME280;62840;52.366;5.980;2022-11-23T01:48:14;99509.78;;;8.85;77.17
69574;BME280;62840;52.366;5.980;2022-11-23T01:50:48;99509.66;;;8.86;77.16
69574;BME280;62840;52.366;5.980;2022-11-23T01:53:16;99514.09;;;8.86;77.20
69574;BME280;62840;52.366;5.980;2022-11-23T01:55:43;99512.97;;;8.88;77.20
69574;BME280;62840;52.366;5.980;2022-11-23T01:58:12;99504.84;;;8.90;77.14
69574;BME280;62840;52.366;5.980;2022-11-23T02:00:40;99507.38;;;8.91;77.23
69574;BME280;62840;52.366;5.980;2022-11-23T02:03:07;99508.19;;;8.92;77.02
69574;BME280;62840;52.366;5.980;2022-11-23T02:05:36;99510.72;;;8.93;77.19
69574;BME280;62840;52.366;5.980;2022-11-23T02:08:10;99516.03;;;8.93;77.15
69574;BME280;62840;52.366;5.980;2022-11-23T02:10:38;99523.00;;;8.94;77.13
69574;BME280;62840;52.366;5.980;2022-11-23T02:13:06;99519.38;;;8.95;77.18
69574;BME280;62840;52.366;5.980;2022-11-23T02:15:34;99525.53;;;8.96;77.27
69574;BME280;62840;52.366;5.980;2022-11-23T02:18:03;99529.72;;;8.98;77.14
69574;BME280;62840;52.366;5.980;2022-11-23T02:20:35;99517.41;;;8.97;77.17
69574;BME280;62840;52.366;5.980;2022-11-23T02:23:13;99519.06;;;8.98;77.10
69574;BME280;62840;52.366;5.980;2022-11-23T02:25:57;99529.72;;;8.98;77.05
69574;BME280;62840;52.366;5.980;2022-11-23T02:28:28;99532.38;;;8.98;77.32
69574;BME280;62840;52.366;5.980;2022-11-23T02:31:04;99529.72;;;8.98;77.05
69574;BME280;62840;52.366;5.980;2022-11-23T02:33:29;99529.72;;;8.98;77.15
69574;BME280;62840;52.366;5.980;2022-11-23T02:35:57;99535.03;;;8.98;77.02
69574;BME280;62840;52.366;5.980;2022-11-23T02:38:27;99535.03;;;8.98;77.12
69574;BME280;62840;52.366;5.980;2022-11-23T02:40:58;99529.72;;;8.98;77.00
69574;BME280;62840;52.366;5.980;2022-11-23T02:43:24;99531.38;;;8.99;76.68
69574;BME280;62840;52.366;5.980;2022-11-23T02:45:52;99539.53;;;8.98;76.99
69574;BME280;62840;52.366;5.980;2022-11-23T02:48:20;99537.00;;;8.96;77.01
69574;BME280;62840;52.366;5.980;2022-11-23T02:50:46;99542.47;;;8.95;76.79
69574;BME280;62840;52.366;5.980;2022-11-23T02:53:13;99534.47;;;8.95;76.94
69574;BME280;62840;52.366;5.980;2022-11-23T02:55:39;99534.66;;;8.93;76.88
69574;BME280;62840;52.366;5.980;2022-11-23T02:58:08;99528.63;;;8.91;76.89
69574;BME280;62840;52.366;5.980;2022-11-23T03:00:34;99533.41;;;8.88;76.93
69574;BME280;62840;52.366;5.980;2022-11-23T03:03:01;99531.75;;;8.87;76.92
69574;BME280;62840;52.366;5.980;2022-11-23T03:05:27;99530.91;;;8.86;77.04
69574;BME280;62840;52.366;5.980;2022-11-23T03:07:53;99549.34;;;8.88;77.02
69574;BME280;62840;52.366;5.980;2022-11-23T03:10:22;99543.06;;;8.89;77.16
69574;BME280;62840;52.366;5.980;2022-11-23T03:12:48;99543.91;;;8.89;76.96
69574;BME280;62840;52.366;5.980;2022-11-23T03:15:16;99541.25;;;8.89;76.98
69574;BME280;62840;52.366;5.980;2022-11-23T03:17:42;99543.91;;;8.89;76.92
69574;BME280;62840;52.366;5.980;2022-11-23T03:20:08;99549.91;;;8.91;76.97
69574;BME280;62840;52.366;5.980;2022-11-23T03:22:35;99550.75;;;8.92;76.86
69574;BME280;62840;52.366;5.980;2022-11-23T03:25:00;99552.41;;;8.93;76.86
69574;BME280;62840;52.366;5.980;2022-11-23T03:27:26;99565.56;;;8.94;77.01
69574;BME280;62840;52.366;5.980;2022-11-23T03:29:52;99556.63;;;8.95;76.89
69574;BME280;62840;52.366;5.980;2022-11-23T03:32:20;99565.28;;;8.97;76.90
69574;BME280;62840;52.366;5.980;2022-11-23T03:34:46;99553.78;;;8.97;76.87
69574;BME280;62840;52.366;5.980;2022-11-23T03:37:12;99550.28;;;8.96;76.88
69574;BME280;62840;52.366;5.980;2022-11-23T03:39:37;99554.66;;;8.97;77.03
69574;BME280;62840;52.366;5.980;2022-11-23T03:42:03;99559.09;;;8.97;76.95
69574;BME280;62840;52.366;5.980;2022-11-23T03:44:29;99560.09;;;8.96;76.85
69574;BME280;62840;52.366;5.980;2022-11-23T03:46:55;99555.63;;;8.96;76.92
69574;BME280;62840;52.366;5.980;2022-11-23T03:49:23;99554.78;;;8.96;76.94
69574;BME280;62840;52.366;5.980;2022-11-23T03:51:49;99567.25;;;8.95;76.83
69574;BME280;62840;52.366;5.980;2022-11-23T03:54:15;99569.03;;;8.95;76.81
69574;BME280;62840;52.366;5.980;2022-11-23T03:56:41;99569.22;;;8.93;76.87
69574;BME280;62840;52.366;5.980;2022-11-23T03:59:07;99567.53;;;8.92;76.80
69574;BME280;62840;52.366;5.980;2022-11-23T04:01:33;99566.00;;;8.90;76.63
69574;BME280;62840;52.366;5.980;2022-11-23T04:04:00;99574.81;;;8.90;76.57
69574;BME280;62840;52.366;5.980;2022-11-23T04:06:28;99572.16;;;8.90;76.56
69574;BME280;62840;52.366;5.980;2022-11-23T04:08:54;99571.47;;;8.88;76.62
69574;BME280;62840;52.366;5.980;2022-11-23T04:11:22;99575.13;;;8.87;76.46
69574;BME280;62840;52.366;5.980;2022-11-23T04:13:48;99575.13;;;8.87;76.70
69574;BME280;62840;52.366;5.980;2022-11-23T04:16:13;99575.13;;;8.87;76.55
69574;BME280;62840;52.366;5.980;2022-11-23T04:18:39;99572.47;;;8.87;76.56
69574;BME280;62840;52.366;5.980;2022-11-23T04:21:05;99572.47;;;8.87;76.62
69574;BME280;62840;52.366;5.980;2022-11-23T04:23:33;99571.47;;;8.88;76.49
69574;BME280;62840;52.366;5.980;2022-11-23T04:25:59;99577.47;;;8.90;76.46
69574;BME280;62840;52.366;5.980;2022-11-23T04:28:25;99577.47;;;8.90;76.44
69574;BME280;62840;52.366;5.980;2022-11-23T04:30:50;99574.81;;;8.90;76.45
69574;BME280;62840;52.366;5.980;2022-11-23T04:33:19;99574.81;;;8.90;76.42
69574;BME280;62840;52.366;5.980;2022-11-23T04:35:44;99569.50;;;8.90;76.26
69574;BME280;62840;52.366;5.980;2022-11-23T04:38:10;99564.34;;;8.89;76.36
69574;BME280;62840;52.366;5.980;2022-11-23T04:40:38;99570.09;;;8.84;76.39
69574;BME280;62840;52.366;5.980;2022-11-23T04:43:04;99571.22;;;8.82;76.27
69574;BME280;62840;52.366;5.980;2022-11-23T04:45:30;99574.16;;;8.78;76.22
69574;BME280;62840;52.366;5.980;2022-11-23T04:47:55;99574.63;;;8.74;76.09
69574;BME280;62840;52.366;5.980;2022-11-23T04:50:21;99574.91;;;8.71;76.30
69574;BME280;62840;52.366;5.980;2022-11-23T04:52:47;99571.00;;;8.65;76.19
69574;BME280;62840;52.366;5.980;2022-11-23T04:55:13;99571.44;;;8.61;76.23
69574;BME280;62840;52.366;5.980;2022-11-23T04:57:41;99573.41;;;8.58;76.24
69574;BME280;62840;52.366;5.980;2022-11-23T05:00:08;99566.69;;;8.54;76.18
69574;BME280;62840;52.366;5.980;2022-11-23T05:02:35;99564.22;;;8.53;76.39
69574;BME280;62840;52.366;5.980;2022-11-23T05:05:01;99565.34;;;8.50;76.27
69574;BME280;62840;52.366;5.980;2022-11-23T05:07:26;99568.00;;;8.50;76.21
69574;BME280;62840;52.366;5.980;2022-11-23T05:09:52;99568.28;;;8.47;76.32
69574;BME280;62840;52.366;5.980;2022-11-23T05:12:18;99572.19;;;8.43;76.23
69574;BME280;62840;52.366;5.980;2022-11-23T05:14:46;99565.53;;;8.39;76.23
69574;BME280;62840;52.366;5.980;2022-11-23T05:17:12;99562.44;;;8.34;76.25
69574;BME280;62840;52.366;5.980;2022-11-23T05:19:38;99562.75;;;8.31;76.21
69574;BME280;62840;52.366;5.980;2022-11-23T05:22:03;99556.03;;;8.27;76.15
69574;BME280;62840;52.366;5.980;2022-11-23T05:24:29;99559.13;;;8.22;76.11
69574;BME280;62840;52.366;5.980;2022-11-23T05:26:55;99553.25;;;8.18;76.18
69574;BME280;62840;52.366;5.980;2022-11-23T05:29:20;99560.81;;;8.13;76.06
69574;BME280;62840;52.366;5.980;2022-11-23T05:31:49;99564.72;;;8.09;76.18
69574;BME280;62840;52.366;5.980;2022-11-23T05:34:14;99574.66;;;8.07;76.23
69574;BME280;62840;52.366;5.980;2022-11-23T05:36:40;99573.13;;;8.05;76.23
69574;BME280;62840;52.366;5.980;2022-11-23T05:39:06;99568.94;;;8.02;76.18
69574;BME280;62840;52.366;5.980;2022-11-23T05:41:32;99574.25;;;8.02;76.39
69574;BME280;62840;52.366;5.980;2022-11-23T05:43:57;99575.94;;;8.03;76.52
69574;BME280;62840;52.366;5.980;2022-11-23T05:46:23;99578.59;;;8.03;76.46
69574;BME280;62840;52.366;5.980;2022-11-23T05:48:52;99578.59;;;8.03;76.30
69574;BME280;62840;52.366;5.980;2022-11-23T05:51:17;99577.59;;;8.04;76.47
69574;BME280;62840;52.366;5.980;2022-11-23T05:53:43;99570.34;;;8.06;76.35
69574;BME280;62840;52.366;5.980;2022-11-23T05:56:09;99579.00;;;8.08;76.46
69574;BME280;62840;52.366;5.980;2022-11-23T05:58:34;99570.03;;;8.09;76.50
69574;BME280;62840;52.366;5.980;2022-11-23T06:01:00;99578.00;;;8.09;76.49
69574;BME280;62840;52.366;5.980;2022-11-23T06:03:26;99574.50;;;8.09;76.63
69574;BME280;62840;52.366;5.980;2022-11-23T06:05:55;99584.00;;;8.11;76.61
69574;BME280;62840;52.366;5.980;2022-11-23T06:08:20;99583.19;;;8.11;76.60
69574;BME280;62840;52.366;5.980;2022-11-23T06:10:46;99582.06;;;8.13;76.57
69574;BME280;62840;52.366;5.980;2022-11-23T06:13:12;99590.72;;;8.15;76.51
69574;BME280;62840;52.366;5.980;2022-11-23T06:15:38;99589.59;;;8.18;76.71
69574;BME280;62840;52.366;5.980;2022-11-23T06:18:04;99590.16;;;8.22;76.65
69574;BME280;62840;52.366;5.980;2022-11-23T06:20:30;99595.19;;;8.25;76.75
69574;BME280;62840;52.366;5.980;2022-11-23T06:22:58;99599.34;;;8.27;76.78
69574;BME280;62840;52.366;5.980;2022-11-23T06:25:26;99596.56;;;8.29;76.82
69574;BME280;62840;52.366;5.980;2022-11-23T06:27:53;99599.91;;;8.31;76.70
69574;BME280;62840;52.366;5.980;2022-11-23T06:30:19;99595.31;;;8.33;76.68
69574;BME280;62840;52.366;5.980;2022-11-23T06:32:45;99601.31;;;8.35;76.73
69574;BME280;62840;52.366;5.980;2022-11-23T06:35:10;99590.41;;;8.38;76.66
69574;BME280;62840;52.366;5.980;2022-11-23T06:37:36;99599.06;;;8.40;76.72
69574;BME280;62840;52.366;5.980;2022-11-23T06:40:06;99590.09;;;8.41;76.59
69574;BME280;62840;52.366;5.980;2022-11-23T06:42:33;99591.78;;;8.42;76.64
69574;BME280;62840;52.366;5.980;2022-11-23T06:44:59;99594.44;;;8.42;76.60
69574;BME280;62840;52.366;5.980;2022-11-23T06:47:24;99597.09;;;8.42;76.61
69574;BME280;62840;52.366;5.980;2022-11-23T06:49:51;99598.75;;;8.43;76.66
69574;BME280;62840;52.366;5.980;2022-11-23T06:52:17;99611.09;;;8.44;76.65
69574;BME280;62840;52.366;5.980;2022-11-23T06:54:43;99593.19;;;8.46;76.65
69574;BME280;62840;52.366;5.980;2022-11-23T06:57:11;99598.19;;;8.49;76.67
69574;BME280;62840;52.366;5.980;2022-11-23T06:59:37;99595.53;;;8.49;76.72
69574;BME280;62840;52.366;5.980;2022-11-23T07:02:03;99608.53;;;8.52;76.58
69574;BME280;62840;52.366;5.980;2022-11-23T07:04:29;99609.22;;;8.54;76.63
69574;BME280;62840;52.366;5.980;2022-11-23T07:06:55;99615.22;;;8.56;76.52
69574;BME280;62840;52.366;5.980;2022-11-23T07:09:20;99609.91;;;8.56;76.55
69574;BME280;62840;52.366;5.980;2022-11-23T07:11:46;99613.28;;;8.58;76.49
69574;BME280;62840;52.366;5.980;2022-11-23T07:14:17;99625.59;;;8.59;76.49
69574;BME280;62840;52.366;5.980;2022-11-23T07:16:43;99623.63;;;8.62;76.37
69574;BME280;62840;52.366;5.980;2022-11-23T07:19:09;99619.97;;;8.63;76.35
69574;BME280;62840;52.366;5.980;2022-11-23T07:21:35;99622.63;;;8.63;76.41
69574;BME280;62840;52.366;5.980;2022-11-23T07:24:00;99622.50;;;8.64;76.33
69574;BME280;62840;52.366;5.980;2022-11-23T07:26:26;99630.31;;;8.66;76.23
69574;BME280;62840;52.366;5.980;2022-11-23T07:28:52;99628.34;;;8.68;76.21
69574;BME280;62840;52.366;5.980;2022-11-23T07:31:20;99633.66;;;8.68;76.33
69574;BME280;62840;52.366;5.980;2022-11-23T07:33:46;99633.66;;;8.68;76.35
69574;BME280;62840;52.366;5.980;2022-11-23T07:36:12;99646.00;;;8.69;76.21
69574;BME280;62840;52.366;5.980;2022-11-23T07:38:38;99652.97;;;8.70;76.21
69574;BME280;62840;52.366;5.980;2022-11-23T07:41:04;99649.47;;;8.69;76.26
69574;BME280;62840;52.366;5.980;2022-11-23T07:43:30;99647.66;;;8.70;76.07
69574;BME280;62840;52.366;5.980;2022-11-23T07:45:56;99662.75;;;8.69;76.07
69574;BME280;62840;52.366;5.980;2022-11-23T07:48:24;99662.19;;;8.66;75.80
69574;BME280;62840;52.366;5.980;2022-11-23T07:50:51;99653.25;;;8.67;76.06
69574;BME280;62840;52.366;5.980;2022-11-23T07:53:18;99668.22;;;8.68;76.00
69574;BME280;62840;52.366;5.980;2022-11-23T07:55:44;99657.59;;;8.68;76.09
69574;BME280;62840;52.366;5.980;2022-11-23T07:58:10;99667.25;;;8.69;75.92
69574;BME280;62840;52.366;5.980;2022-11-23T08:00:37;99668.91;;;8.70;76.00
69574;BME280;62840;52.366;5.980;2022-11-23T08:03:03;99671.31;;;8.73;75.94
69574;BME280;62840;52.366;5.980;2022-11-23T08:05:33;99680.63;;;8.77;75.84
69574;BME280;62840;52.366;5.980;2022-11-23T08:07:59;99672.66;;;8.77;75.85
69574;BME280;62840;52.366;5.980;2022-11-23T08:10:26;99677.00;;;8.78;75.70
69574;BME280;62840;52.366;5.980;2022-11-23T08:12:56;99678.69;;;8.79;75.60
69574;BME280;62840;52.366;5.980;2022-11-23T08:15:22;99681.19;;;8.80;75.63
69574;BME280;62840;52.366;5.980;2022-11-23T08:17:48;99689.88;;;8.83;75.62
69574;BME280;62840;52.366;5.980;2022-11-23T08:20:13;99690.72;;;8.83;75.59
69574;BME280;62840;52.366;5.980;2022-11-23T08:22:42;99681.75;;;8.84;75.77
69574;BME280;62840;52.366;5.980;2022-11-23T08:25:08;99690.44;;;8.86;75.58
69574;BME280;62840;52.366;5.980;2022-11-23T08:27:33;99688.59;;;8.87;75.65
69574;BME280;62840;52.366;5.980;2022-11-23T08:29:59;99699.06;;;8.88;75.51
69574;BME280;62840;52.366;5.980;2022-11-23T08:32:25;99690.13;;;8.89;75.41
69574;BME280;62840;52.366;5.980;2022-11-23T08:34:51;99690.97;;;8.90;75.58
69574;BME280;62840;52.366;5.980;2022-11-23T08:37:18;99698.81;;;8.91;75.45
69574;BME280;62840;52.366;5.980;2022-11-23T08:39:47;99694.47;;;8.90;75.42
69574;BME280;62840;52.366;5.980;2022-11-23T08:42:16;99699.94;;;8.89;75.43
69574;BME280;62840;52.366;5.980;2022-11-23T08:44:41;99693.63;;;8.90;75.57
69574;BME280;62840;52.366;5.980;2022-11-23T08:47:07;99693.75;;;8.88;75.69
69574;BME280;62840;52.366;5.980;2022-11-23T08:49:33;99695.59;;;8.88;75.68
69574;BME280;62840;52.366;5.980;2022-11-23T08:51:58;99699.06;;;8.88;75.90
69574;BME280;62840;52.366;5.980;2022-11-23T08:54:24;99700.91;;;8.88;75.83
69574;BME280;62840;52.366;5.980;2022-11-23T08:56:53;99694.06;;;8.85;75.86
69574;BME280;62840;52.366;5.980;2022-11-23T08:59:19;99702.75;;;8.87;76.09
69574;BME280;62840;52.366;5.980;2022-11-23T09:01:45;99699.06;;;8.88;75.96
69574;BME280;62840;52.366;5.980;2022-11-23T09:04:10;99701.06;;;8.86;75.86
69574;BME280;62840;52.366;5.980;2022-11-23T09:06:37;99697.41;;;8.87;76.00
69574;BME280;62840;52.366;5.980;2022-11-23T09:09:03;99695.75;;;8.86;76.13
69574;BME280;62840;52.366;5.980;2022-11-23T09:11:28;99692.41;;;8.84;76.04
69574;BME280;62840;52.366;5.980;2022-11-23T09:13:57;99698.69;;;8.83;76.14
69574;BME280;62840;52.366;5.980;2022-11-23T09:16:23;99701.06;;;8.86;76.25
69574;BME280;62840;52.366;5.980;2022-11-23T09:18:49;99706.09;;;8.89;76.32
69574;BME280;62840;52.366;5.980;2022-11-23T09:21:14;99701.59;;;8.90;76.33
69574;BME280;62840;52.366;5.980;2022-11-23T09:23:40;99704.13;;;8.91;76.26
69574;BME280;62840;52.366;5.980;2022-11-23T09:26:06;99694.47;;;8.90;76.30
69574;BME280;62840;52.366;5.980;2022-11-23T09:28:35;99695.47;;;8.89;76.24
69574;BME280;62840;52.366;5.980;2022-11-23T09:31:04;99697.13;;;8.90;76.30
69574;BME280;62840;52.366;5.980;2022-11-23T09:33:30;99691.81;;;8.90;76.24
69574;BME280;62840;52.366;5.980;2022-11-23T09:35:56;99695.16;;;8.92;76.38
69574;BME280;62840;52.366;5.980;2022-11-23T09:38:23;99692.38;;;8.94;76.28
69574;BME280;62840;52.366;5.980;2022-11-23T09:43:53;99688.25;;;8.99;76.35
69574;BME280;62840;52.366;5.980;2022-11-23T09:46:38;99694.59;;;8.98;76.31
69574;BME280;62840;52.366;5.980;2022-11-23T09:49:16;99682.81;;;9.01;76.22
69574;BME280;62840;52.366;5.980;2022-11-23T09:51:45;99689.53;;;9.05;76.17
69574;BME280;62840;52.366;5.980;2022-11-23T09:54:24;99685.72;;;9.08;76.12
69574;BME280;62840;52.366;5.980;2022-11-23T09:56:54;99684.75;;;9.09;76.11
69574;BME280;62840;52.366;5.980;2022-11-23T09:59:30;99687.25;;;9.10;76.10
69574;BME280;62840;52.366;5.980;2022-11-23T10:02:16;99695.09;;;9.12;76.16
69574;BME280;62840;52.366;5.980;2022-11-23T10:04:45;99684.16;;;9.15;76.08
69574;BME280;62840;52.366;5.980;2022-11-23T10:07:23;99678.56;;;9.18;76.12
69574;BME280;62840;52.366;5.980;2022-11-23T10:10:09;99674.06;;;9.18;76.09
69574;BME280;62840;52.366;5.980;2022-11-23T10:12:51;99667.94;;;9.18;76.05
69574;BME280;62840;52.366;5.980;2022-11-23T10:15:31;99670.59;;;9.18;76.01
69574;BME280;62840;52.366;5.980;2022-11-23T10:18:20;99671.81;;;9.24;75.92
69574;BME280;62840;52.366;5.980;2022-11-23T10:20:58;99663.28;;;9.30;76.07
69574;BME280;62840;52.366;5.980;2022-11-23T10:23:39;99649.53;;;9.34;76.17
69574;BME280;62840;52.366;5.980;2022-11-23T10:26:17;99650.22;;;9.36;76.12
69574;BME280;62840;52.366;5.980;2022-11-23T10:28:45;99641.22;;;9.37;75.73
69574;BME280;62840;52.366;5.980;2022-11-23T10:31:13;99643.75;;;9.39;75.61
69574;BME280;62840;52.366;5.980;2022-11-23T10:33:51;99640.97;;;9.40;75.44
69574;BME280;62840;52.366;5.980;2022-11-23T10:36:21;99635.63;;;9.40;75.44
69574;BME280;62840;52.366;5.980;2022-11-23T10:38:48;99632.81;;;9.42;75.42
69574;BME280;62840;52.366;5.980;2022-11-23T10:41:18;99620.34;;;9.43;75.31
69574;BME280;62840;52.366;5.980;2022-11-23T10:43:49;99615.19;;;9.41;75.48
69574;BME280;62840;52.366;5.980;2022-11-23T10:46:29;99601.72;;;9.43;74.85
69574;BME280;62840;52.366;5.980;2022-11-23T10:49:14;99602.84;;;9.40;74.45
69574;BME280;62840;52.366;5.980;2022-11-23T10:51:49;99605.66;;;9.38;74.64
69574;BME280;62840;52.366;5.980;2022-11-23T10:54:26;99602.00;;;9.39;74.56
69574;BME280;62840;52.366;5.980;2022-11-23T10:56:56;99585.22;;;9.39;74.31
69574;BME280;62840;52.366;5.980;2022-11-23T10:59:34;99591.09;;;9.43;74.28
69574;BME280;62840;52.366;5.980;2022-11-23T11:02:20;99584.06;;;9.41;74.48
69574;BME280;62840;52.366;5.980;2022-11-23T11:04:49;99589.53;;;9.40;74.54
69574;BME280;62840;52.366;5.980;2022-11-23T11:07:35;99595.03;;;9.38;74.23
69574;BME280;62840;52.366;5.980;2022-11-23T11:10:05;99583.69;;;9.36;74.29
69574;BME280;62840;52.366;5.980;2022-11-23T11:12:51;99586.63;;;9.33;73.90
69574;BME280;62840;52.366;5.980;2022-11-23T11:15:17;99580.34;;;9.34;73.78
69574;BME280;62840;52.366;5.980;2022-11-23T11:17:43;99589.97;;;9.35;73.92
69574;BME280;62840;52.366;5.980;2022-11-23T11:20:30;99590.84;;;9.36;73.76
69574;BME280;62840;52.366;5.980;2022-11-23T11:22:58;99590.69;;;9.37;73.36
69574;BME280;62840;52.366;5.980;2022-11-23T11:25:31;99590.53;;;9.39;73.31
69574;BME280;62840;52.366;5.980;2022-11-23T11:28:02;99589.41;;;9.41;73.12
69574;BME280;62840;52.366;5.980;2022-11-23T11:30:41;99587.41;;;9.44;73.09
69574;BME280;62840;52.366;5.980;2022-11-23T11:33:14;99590.09;;;9.44;73.19
69574;BME280;62840;52.366;5.980;2022-11-23T11:35:49;99591.09;;;9.43;72.91
69574;BME280;62840;52.366;5.980;2022-11-23T11:38:21;99585.75;;;9.43;72.96
69574;BME280;62840;52.366;5.980;2022-11-23T11:40:52;99591.09;;;9.43;72.79
69574;BME280;62840;52.366;5.980;2022-11-23T11:43:25;99584.06;;;9.41;72.35
69574;BME280;62840;52.366;5.980;2022-11-23T11:45:59;99576.91;;;9.42;72.40
69574;BME280;62840;52.366;5.980;2022-11-23T11:48:32;99584.63;;;9.45;72.63
69574;BME280;62840;52.366;5.980;2022-11-23T11:51:07;99583.47;;;9.48;72.56
69574;BME280;62840;52.366;5.980;2022-11-23T11:53:42;99575.50;;;9.48;72.16
69574;BME280;62840;52.366;5.980;2022-11-23T11:56:21;99583.16;;;9.51;72.47
69574;BME280;62840;52.366;5.980;2022-11-23T11:58:56;99579.53;;;9.52;72.45
69574;BME280;62840;52.366;5.980;2022-11-23T12:01:32;99573.34;;;9.51;72.09
69574;BME280;62840;52.366;5.980;2022-11-23T12:04:04;99585.69;;;9.52;72.15
69574;BME280;62840;52.366;5.980;2022-11-23T12:06:42;99580.03;;;9.55;72.08
69574;BME280;62840;52.366;5.980;2022-11-23T12:09:16;99584.53;;;9.55;71.98
69574;BME280;62840;52.366;5.980;2022-11-23T12:11:47;99580.59;;;9.59;71.65
69574;BME280;62840;52.366;5.980;2022-11-23T12:14:14;99583.94;;;9.61;71.86
69574;BME280;62840;52.366;5.980;2022-11-23T12:16:48;99578.31;;;9.64;71.90
69574;BME280;62840;52.366;5.980;2022-11-23T12:19:23;99578.00;;;9.67;71.90
69574;BME280;62840;52.366;5.980;2022-11-23T12:22:11;99586.66;;;9.69;71.71
69574;BME280;62840;52.366;5.980;2022-11-23T12:25:10;99583.16;;;9.69;71.72
69574;BME280;62840;52.366;5.980;2022-11-23T12:27:53;99592.00;;;9.69;71.49
69574;BME280;62840;52.366;5.980;2022-11-23T12:30:29;99570.41;;;9.72;71.57
69574;BME280;62840;52.366;5.980;2022-11-23T12:33:18;99576.56;;;9.73;71.22
69574;BME280;62840;52.366;5.980;2022-11-23T12:36:25;99565.09;;;9.72;71.13
69574;BME280;62840;52.366;5.980;2022-11-23T12:39:14;99564.25;;;9.72;70.96
69574;BME280;62840;52.366;5.980;2022-11-23T12:42:09;99565.09;;;9.72;71.07
69574;BME280;62840;52.366;5.980;2022-11-23T12:44:50;99554.44;;;9.72;70.92
69574;BME280;62840;52.366;5.980;2022-11-23T12:47:32;99563.38;;;9.71;70.86
69574;BME280;62840;52.366;5.980;2022-11-23T12:50:16;99549.38;;;9.69;70.92
69574;BME280;62840;52.366;5.980;2022-11-23T12:52:58;99556.41;;;9.70;70.94
69574;BME280;62840;52.366;5.980;2022-11-23T12:55:39;99553.59;;;9.72;70.86
69574;BME280;62840;52.366;5.980;2022-11-23T12:58:18;99552.59;;;9.73;70.94
69574;BME280;62840;52.366;5.980;2022-11-23T13:00:54;99542.09;;;9.71;70.92
69574;BME280;62840;52.366;5.980;2022-11-23T13:03:46;99540.44;;;9.70;70.89
69574;BME280;62840;52.366;5.980;2022-11-23T13:10:22;99546.38;;;9.64;70.58
69574;BME280;62840;52.366;5.980;2022-11-23T13:16:33;99548.66;;;9.59;70.53
69574;BME280;62840;52.366;5.980;2022-11-23T13:19:24;99540.81;;;9.57;70.66
69574;BME280;62840;52.366;5.980;2022-11-23T13:21:59;99545.00;;;9.60;70.63
69574;BME280;62840;52.366;5.980;2022-11-23T13:24:30;99543.00;;;9.62;70.69
69574;BME280;62840;52.366;5.980;2022-11-23T13:27:28;99546.69;;;9.61;70.30
69574;BME280;62840;52.366;5.980;2022-11-23T13:29:57;99538.69;;;9.61;70.63
69574;BME280;62840;52.366;5.980;2022-11-23T13:32:42;99541.03;;;9.64;70.67
69574;BME280;62840;52.366;5.980;2022-11-23T13:38:35;99532.72;;;9.67;70.26